Airfield :
LOGIN :

Register | Disclaimer

   EN    FR    IT 

 










Legend :    VFR   Marginal VFR   IFR   Intensive IFR   Very Intensive IFR
Visi :
Ceiling :
>= 8 km
>= 3000ft
5 to 8 km
1000 to 3000 ft
1500m to 5 km
500 to 1000 ft
800 to 1500m
200 to 500 ft
< 800m
< 200 ft
Symbols :   Thunderstorms  Fog  Heavy snow  Heavy precipitations  Wind > 20 kt
SIGMETs :     Misc.  Thunderstorms  Icing  Turbulence  Mountain Waves  Volcanic Ashes






- Airport Elevation : 1046 ft
- IATA code : NUE


EDDN - Nuremberg

CURRENT METAR :
  • 040520Z AUTO 29004KT 260V320 CAVOK 18/12 Q1019 NOSIG

EXPIRED METARs :
  • 040450Z AUTO 29005KT CAVOK 18/13 Q1019 NOSIG
  • 040350Z AUTO 31004KT CAVOK 16/13 Q1018
  • 040320Z AUTO VRB01KT CAVOK 16/12 Q1018
  • 040250Z AUTO VRB02KT CAVOK 16/13 Q1018

TAF TAF EDDN
Valid from the 04 at 06:00 until the 05 at 06:00 UTC


040500Z 0406/0506 29008KT 9999 SCT030
BECMG 0419/0421 33003KT



MET'MAP, your aeronautical weather chart ! - Copyright ORBIFLY December 2007 - Disclaimer

ORBIFLY MET'MAP TEAM :

Programming & Development : Alexandra Zaïnal
Original concept : Baudouin d'Aumeries
Technical & hardware support : Manuel Goepfert
Assistance : Marc-Olivier Méhu




SOURCES & CREDITS :

   NOAA